sensor_id;sensor_type;location;lat;lon;timestamp;temperature;humidity
8832;DHT22;4452;50.756;4.472;2022-11-15T00:00:04;11.50;99.90
8832;DHT22;4452;50.756;4.472;2022-11-15T00:02:30;11.50;99.90
8832;DHT22;4452;50.756;4.472;2022-11-15T00:04:56;11.50;99.90
8832;DHT22;4452;50.756;4.472;2022-11-15T00:07:21;11.60;99.90
8832;DHT22;4452;50.756;4.472;2022-11-15T00:09:47;11.60;99.90
8832;DHT22;4452;50.756;4.472;2022-11-15T00:12:13;11.60;99.90
8832;DHT22;4452;50.756;4.472;2022-11-15T00:14:38;11.60;99.90
8832;DHT22;4452;50.756;4.472;2022-11-15T00:17:04;11.60;99.90
8832;DHT22;4452;50.756;4.472;2022-11-15T00:19:30;11.70;99.90
8832;DHT22;4452;50.756;4.472;2022-11-15T00:21:55;11.70;99.90
8832;DHT22;4452;50.756;4.472;2022-11-15T00:24:21;11.70;99.90
8832;DHT22;4452;50.756;4.472;2022-11-15T00:26:47;11.80;99.90
8832;DHT22;4452;50.756;4.472;2022-11-15T00:29:12;11.80;99.90
8832;DHT22;4452;50.756;4.472;2022-11-15T00:31:38;11.80;99.90
8832;DHT22;4452;50.756;4.472;2022-11-15T00:34:04;11.90;99.90
8832;DHT22;4452;50.756;4.472;2022-11-15T00:36:33;11.90;99.90
8832;DHT22;4452;50.756;4.472;2022-11-15T00:38:58;11.90;99.90
8832;DHT22;4452;50.756;4.472;2022-11-15T00:41:24;11.90;99.90
8832;DHT22;4452;50.756;4.472;2022-11-15T00:43:50;11.90;99.90
8832;DHT22;4452;50.756;4.472;2022-11-15T00:46:15;12.00;99.90
8832;DHT22;4452;50.756;4.472;2022-11-15T00:48:41;12.00;99.90
8832;DHT22;4452;50.756;4.472;2022-11-15T00:51:07;12.00;99.90
8832;DHT22;4452;50.756;4.472;2022-11-15T00:53:32;12.00;99.90
8832;DHT22;4452;50.756;4.472;2022-11-15T00:55:58;12.00;99.90
8832;DHT22;4452;50.756;4.472;2022-11-15T00:58:24;12.00;99.90
8832;DHT22;4452;50.756;4.472;2022-11-15T01:00:49;12.00;99.90
8832;DHT22;4452;50.756;4.472;2022-11-15T01:03:15;12.00;99.90
8832;DHT22;4452;50.756;4.472;2022-11-15T01:05:41;12.00;99.90
8832;DHT22;4452;50.756;4.472;2022-11-15T01:08:10;12.00;99.90
8832;DHT22;4452;50.756;4.472;2022-11-15T01:10:36;12.00;99.90
8832;DHT22;4452;50.756;4.472;2022-11-15T01:13:02;12.10;99.90
8832;DHT22;4452;50.756;4.472;2022-11-15T01:15:28;12.10;99.90
8832;DHT22;4452;50.756;4.472;2022-11-15T01:17:53;12.10;99.90
8832;DHT22;4452;50.756;4.472;2022-11-15T01:20:20;12.10;99.90
8832;DHT22;4452;50.756;4.472;2022-11-15T01:22:46;12.10;99.90
8832;DHT22;4452;50.756;4.472;2022-11-15T01:25:11;12.10;99.90
8832;DHT22;4452;50.756;4.472;2022-11-15T01:27:37;12.10;99.90
8832;DHT22;4452;50.756;4.472;2022-11-15T01:30:03;12.20;99.90
8832;DHT22;4452;50.756;4.472;2022-11-15T01:32:29;12.20;99.90
8832;DHT22;4452;50.756;4.472;2022-11-15T01:34:55;12.20;99.90
8832;DHT22;4452;50.756;4.472;2022-11-15T01:37:21;12.20;99.90
8832;DHT22;4452;50.756;4.472;2022-11-15T01:39:46;12.10;99.90
8832;DHT22;4452;50.756;4.472;2022-11-15T01:42:12;12.20;99.90
8832;DHT22;4452;50.756;4.472;2022-11-15T01:44:43;12.20;99.90
8832;DHT22;4452;50.756;4.472;2022-11-15T01:47:47;12.20;99.90
8832;DHT22;4452;50.756;4.472;2022-11-15T01:50:12;12.20;99.90
8832;DHT22;4452;50.756;4.472;2022-11-15T01:52:39;12.20;99.90
8832;DHT22;4452;50.756;4.472;2022-11-15T01:55:09;12.10;99.90
8832;DHT22;4452;50.756;4.472;2022-11-15T01:57:36;12.10;99.90
8832;DHT22;4452;50.756;4.472;2022-11-15T02:00:04;12.10;99.90
8832;DHT22;4452;50.756;4.472;2022-11-15T02:02:30;12.10;99.90
8832;DHT22;4452;50.756;4.472;2022-11-15T02:04:56;12.10;99.90
8832;DHT22;4452;50.756;4.472;2022-11-15T02:07:22;12.10;99.90
8832;DHT22;4452;50.756;4.472;2022-11-15T02:09:49;12.10;99.90
8832;DHT22;4452;50.756;4.472;2022-11-15T02:12:19;12.10;99.90
8832;DHT22;4452;50.756;4.472;2022-11-15T02:14:48;12.10;99.90
8832;DHT22;4452;50.756;4.472;2022-11-15T02:20:37;12.00;99.90
8832;DHT22;4452;50.756;4.472;2022-11-15T02:23:18;12.10;99.90
8832;DHT22;4452;50.756;4.472;2022-11-15T02:28:58;12.00;99.90
8832;DHT22;4452;50.756;4.472;2022-11-15T02:35:24;12.00;99.90
8832;DHT22;4452;50.756;4.472;2022-11-15T02:37:56;11.90;99.90
8832;DHT22;4452;50.756;4.472;2022-11-15T02:43:25;11.90;99.90
8832;DHT22;4452;50.756;4.472;2022-11-15T02:46:21;11.90;99.90
8832;DHT22;4452;50.756;4.472;2022-11-15T02:49:09;11.90;99.90
8832;DHT22;4452;50.756;4.472;2022-11-15T02:51:35;11.90;99.90
8832;DHT22;4452;50.756;4.472;2022-11-15T02:54:00;11.90;99.90
8832;DHT22;4452;50.756;4.472;2022-11-15T02:56:26;11.90;99.90
8832;DHT22;4452;50.756;4.472;2022-11-15T02:59:03;11.90;99.90
8832;DHT22;4452;50.756;4.472;2022-11-15T03:01:42;11.90;99.90
8832;DHT22;4452;50.756;4.472;2022-11-15T03:07:07;11.90;99.90
8832;DHT22;4452;50.756;4.472;2022-11-15T03:12:23;11.80;99.90
8832;DHT22;4452;50.756;4.472;2022-11-15T03:15:06;11.80;99.90
8832;DHT22;4452;50.756;4.472;2022-11-15T03:17:49;11.80;99.90
8832;DHT22;4452;50.756;4.472;2022-11-15T03:20:17;11.80;99.90
8832;DHT22;4452;50.756;4.472;2022-11-15T03:22:46;11.70;99.90
8832;DHT22;4452;50.756;4.472;2022-11-15T03:25:18;11.70;99.90
8832;DHT22;4452;50.756;4.472;2022-11-15T03:27:49;11.70;99.90
8832;DHT22;4452;50.756;4.472;2022-11-15T03:30:17;11.70;99.90
8832;DHT22;4452;50.756;4.472;2022-11-15T03:33:03;11.70;99.90
8832;DHT22;4452;50.756;4.472;2022-11-15T03:35:34;11.70;99.90
8832;DHT22;4452;50.756;4.472;2022-11-15T03:38:03;11.60;99.90
8832;DHT22;4452;50.756;4.472;2022-11-15T03:40:45;11.70;99.90
8832;DHT22;4452;50.756;4.472;2022-11-15T03:46:07;11.60;99.90
8832;DHT22;4452;50.756;4.472;2022-11-15T03:48:41;11.70;99.90
8832;DHT22;4452;50.756;4.472;2022-11-15T03:51:09;11.60;99.90
8832;DHT22;4452;50.756;4.472;2022-11-15T03:53:35;11.60;99.90
8832;DHT22;4452;50.756;4.472;2022-11-15T03:56:01;11.60;99.90
8832;DHT22;4452;50.756;4.472;2022-11-15T03:58:27;11.60;99.90
8832;DHT22;4452;50.756;4.472;2022-11-15T04:00:52;11.60;99.90
8832;DHT22;4452;50.756;4.472;2022-11-15T04:03:18;11.60;99.90
8832;DHT22;4452;50.756;4.472;2022-11-15T04:05:44;11.60;99.90
8832;DHT22;4452;50.756;4.472;2022-11-15T04:08:09;11.50;99.90
8832;DHT22;4452;50.756;4.472;2022-11-15T04:10:35;11.50;99.90
8832;DHT22;4452;50.756;4.472;2022-11-15T04:13:02;11.40;99.90
8832;DHT22;4452;50.756;4.472;2022-11-15T04:15:27;11.40;99.90
8832;DHT22;4452;50.756;4.472;2022-11-15T04:17:56;11.40;99.90
8832;DHT22;4452;50.756;4.472;2022-11-15T04:20:30;11.40;99.90
8832;DHT22;4452;50.756;4.472;2022-11-15T04:23:20;11.30;99.90
8832;DHT22;4452;50.756;4.472;2022-11-15T04:26:10;11.30;99.90
8832;DHT22;4452;50.756;4.472;2022-11-15T04:28:36;11.30;99.90
8832;DHT22;4452;50.756;4.472;2022-11-15T04:31:25;11.30;99.90
8832;DHT22;4452;50.756;4.472;2022-11-15T04:33:50;11.20;99.90
8832;DHT22;4452;50.756;4.472;2022-11-15T04:36:16;11.20;99.90
8832;DHT22;4452;50.756;4.472;2022-11-15T04:39:00;11.20;99.90
8832;DHT22;4452;50.756;4.472;2022-11-15T04:41:26;11.10;99.90
8832;DHT22;4452;50.756;4.472;2022-11-15T04:43:52;11.00;99.90
8832;DHT22;4452;50.756;4.472;2022-11-15T04:46:17;11.00;99.90
8832;DHT22;4452;50.756;4.472;2022-11-15T04:48:43;11.00;99.90
8832;DHT22;4452;50.756;4.472;2022-11-15T04:51:09;10.90;99.90
8832;DHT22;4452;50.756;4.472;2022-11-15T04:53:34;10.90;99.90
8832;DHT22;4452;50.756;4.472;2022-11-15T04:56:00;10.80;99.90
8832;DHT22;4452;50.756;4.472;2022-11-15T04:58:25;10.80;99.90
8832;DHT22;4452;50.756;4.472;2022-11-15T05:00:51;10.70;99.90
8832;DHT22;4452;50.756;4.472;2022-11-15T05:03:17;10.70;99.90
8832;DHT22;4452;50.756;4.472;2022-11-15T05:06:01;10.70;99.90
8832;DHT22;4452;50.756;4.472;2022-11-15T05:08:27;10.60;99.90
8832;DHT22;4452;50.756;4.472;2022-11-15T05:10:53;10.60;99.90
8832;DHT22;4452;50.756;4.472;2022-11-15T05:13:18;10.60;99.90
8832;DHT22;4452;50.756;4.472;2022-11-15T05:15:44;10.50;99.90
8832;DHT22;4452;50.756;4.472;2022-11-15T05:18:10;10.40;99.90
8832;DHT22;4452;50.756;4.472;2022-11-15T05:20:35;10.40;99.90
8832;DHT22;4452;50.756;4.472;2022-11-15T05:23:01;10.30;99.90
8832;DHT22;4452;50.756;4.472;2022-11-15T05:25:27;10.40;99.90
8832;DHT22;4452;50.756;4.472;2022-11-15T05:27:53;10.30;99.90
8832;DHT22;4452;50.756;4.472;2022-11-15T05:30:19;10.20;99.90
8832;DHT22;4452;50.756;4.472;2022-11-15T05:32:44;10.20;99.90
8832;DHT22;4452;50.756;4.472;2022-11-15T05:35:15;10.20;99.90
8832;DHT22;4452;50.756;4.472;2022-11-15T05:37:44;10.10;99.90
8832;DHT22;4452;50.756;4.472;2022-11-15T05:40:09;10.00;99.90
8832;DHT22;4452;50.756;4.472;2022-11-15T05:42:35;9.90;99.90
8832;DHT22;4452;50.756;4.472;2022-11-15T05:45:03;9.90;99.90
8832;DHT22;4452;50.756;4.472;2022-11-15T05:47:30;9.90;99.90
8832;DHT22;4452;50.756;4.472;2022-11-15T05:49:57;9.80;99.90
8832;DHT22;4452;50.756;4.472;2022-11-15T05:52:28;9.70;99.90
8832;DHT22;4452;50.756;4.472;2022-11-15T05:54:56;9.70;99.90
8832;DHT22;4452;50.756;4.472;2022-11-15T05:57:22;9.70;99.90
8832;DHT22;4452;50.756;4.472;2022-11-15T05:59:48;9.80;99.90
8832;DHT22;4452;50.756;4.472;2022-11-15T06:02:13;9.80;99.90
8832;DHT22;4452;50.756;4.472;2022-11-15T06:04:39;9.80;99.90
8832;DHT22;4452;50.756;4.472;2022-11-15T06:07:05;9.80;99.90
8832;DHT22;4452;50.756;4.472;2022-11-15T06:09:30;9.70;99.90
8832;DHT22;4452;50.756;4.472;2022-11-15T06:11:56;9.70;99.90
8832;DHT22;4452;50.756;4.472;2022-11-15T06:14:21;9.70;99.90
8832;DHT22;4452;50.756;4.472;2022-11-15T06:16:47;9.60;99.90
8832;DHT22;4452;50.756;4.472;2022-11-15T06:19:13;9.60;99.90
8832;DHT22;4452;50.756;4.472;2022-11-15T06:21:38;9.60;99.90
8832;DHT22;4452;50.756;4.472;2022-11-15T06:24:05;9.50;99.90
8832;DHT22;4452;50.756;4.472;2022-11-15T06:26:34;9.40;99.90
8832;DHT22;4452;50.756;4.472;2022-11-15T06:28:59;9.40;99.90
8832;DHT22;4452;50.756;4.472;2022-11-15T06:31:25;9.40;99.90
8832;DHT22;4452;50.756;4.472;2022-11-15T06:33:51;9.30;99.90
8832;DHT22;4452;50.756;4.472;2022-11-15T06:36:16;9.30;99.90
8832;DHT22;4452;50.756;4.472;2022-11-15T06:38:43;9.20;99.90
8832;DHT22;4452;50.756;4.472;2022-11-15T06:41:10;9.30;99.90
8832;DHT22;4452;50.756;4.472;2022-11-15T06:43:37;9.20;99.90
8832;DHT22;4452;50.756;4.472;2022-11-15T06:46:04;9.20;99.90
8832;DHT22;4452;50.756;4.472;2022-11-15T06:48:30;9.10;99.90
8832;DHT22;4452;50.756;4.472;2022-11-15T06:50:58;9.10;99.90
8832;DHT22;4452;50.756;4.472;2022-11-15T06:53:25;9.10;99.90
8832;DHT22;4452;50.756;4.472;2022-11-15T06:55:51;9.20;99.90
8832;DHT22;4452;50.756;4.472;2022-11-15T06:58:17;9.10;99.90
8832;DHT22;4452;50.756;4.472;2022-11-15T07:00:46;9.10;99.90
8832;DHT22;4452;50.756;4.472;2022-11-15T07:03:12;9.00;99.90
8832;DHT22;4452;50.756;4.472;2022-11-15T07:05:37;9.00;99.90
8832;DHT22;4452;50.756;4.472;2022-11-15T07:08:03;9.00;99.90
8832;DHT22;4452;50.756;4.472;2022-11-15T07:10:30;9.10;99.90
8832;DHT22;4452;50.756;4.472;2022-11-15T07:12:56;9.10;99.90
8832;DHT22;4452;50.756;4.472;2022-11-15T07:15:24;9.20;99.90
8832;DHT22;4452;50.756;4.472;2022-11-15T07:17:50;9.30;99.90
8832;DHT22;4452;50.756;4.472;2022-11-15T07:20:17;9.30;99.90
8832;DHT22;4452;50.756;4.472;2022-11-15T07:22:46;9.20;99.90
8832;DHT22;4452;50.756;4.472;2022-11-15T07:25:14;9.20;99.90
8832;DHT22;4452;50.756;4.472;2022-11-15T07:27:43;9.20;99.90
8832;DHT22;4452;50.756;4.472;2022-11-15T07:30:15;9.20;99.90
8832;DHT22;4452;50.756;4.472;2022-11-15T07:32:43;9.30;99.90
8832;DHT22;4452;50.756;4.472;2022-11-15T07:35:11;9.30;99.90
8832;DHT22;4452;50.756;4.472;2022-11-15T07:37:39;9.40;99.90
8832;DHT22;4452;50.756;4.472;2022-11-15T07:40:07;9.30;99.90
8832;DHT22;4452;50.756;4.472;2022-11-15T07:42:33;9.30;99.90
8832;DHT22;4452;50.756;4.472;2022-11-15T07:45:17;9.30;99.90
8832;DHT22;4452;50.756;4.472;2022-11-15T07:47:45;9.30;99.90
8832;DHT22;4452;50.756;4.472;2022-11-15T07:50:11;9.30;99.90
8832;DHT22;4452;50.756;4.472;2022-11-15T07:52:37;9.30;99.90
8832;DHT22;4452;50.756;4.472;2022-11-15T07:55:03;9.40;99.90
8832;DHT22;4452;50.756;4.472;2022-11-15T07:57:29;9.40;99.90
8832;DHT22;4452;50.756;4.472;2022-11-15T07:59:56;9.40;99.90
8832;DHT22;4452;50.756;4.472;2022-11-15T08:02:22;9.50;99.90
8832;DHT22;4452;50.756;4.472;2022-11-15T08:04:47;9.50;99.90
8832;DHT22;4452;50.756;4.472;2022-11-15T08:07:13;9.60;99.90
8832;DHT22;4452;50.756;4.472;2022-11-15T08:09:39;9.60;99.90
8832;DHT22;4452;50.756;4.472;2022-11-15T08:12:05;9.60;99.90
8832;DHT22;4452;50.756;4.472;2022-11-15T08:14:31;9.70;99.90
8832;DHT22;4452;50.756;4.472;2022-11-15T08:16:57;9.80;99.90
8832;DHT22;4452;50.756;4.472;2022-11-15T08:19:22;9.90;99.90
8832;DHT22;4452;50.756;4.472;2022-11-15T08:21:48;9.90;99.90
8832;DHT22;4452;50.756;4.472;2022-11-15T08:24:14;10.00;99.90
8832;DHT22;4452;50.756;4.472;2022-11-15T08:26:42;10.00;99.90
8832;DHT22;4452;50.756;4.472;2022-11-15T08:29:11;10.10;99.90
8832;DHT22;4452;50.756;4.472;2022-11-15T08:31:38;10.10;99.90
8832;DHT22;4452;50.756;4.472;2022-11-15T08:34:05;10.10;99.90
8832;DHT22;4452;50.756;4.472;2022-11-15T08:36:31;10.10;99.90
8832;DHT22;4452;50.756;4.472;2022-11-15T08:38:57;10.20;99.90
8832;DHT22;4452;50.756;4.472;2022-11-15T08:41:35;10.10;99.90
8832;DHT22;4452;50.756;4.472;2022-11-15T08:44:03;10.10;99.90
8832;DHT22;4452;50.756;4.472;2022-11-15T08:46:32;10.20;99.90
8832;DHT22;4452;50.756;4.472;2022-11-15T08:48:59;10.20;99.90
8832;DHT22;4452;50.756;4.472;2022-11-15T08:51:24;10.30;99.90
8832;DHT22;4452;50.756;4.472;2022-11-15T08:53:50;10.30;99.90
8832;DHT22;4452;50.756;4.472;2022-11-15T08:56:16;10.20;99.90
8832;DHT22;4452;50.756;4.472;2022-11-15T08:58:41;10.30;99.90
8832;DHT22;4452;50.756;4.472;2022-11-15T09:01:15;10.20;99.90
8832;DHT22;4452;50.756;4.472;2022-11-15T09:03:41;10.30;99.90
8832;DHT22;4452;50.756;4.472;2022-11-15T09:06:07;10.30;99.90
8832;DHT22;4452;50.756;4.472;2022-11-15T09:08:33;10.30;99.90
8832;DHT22;4452;50.756;4.472;2022-11-15T09:11:03;10.40;99.90
8832;DHT22;4452;50.756;4.472;2022-11-15T09:13:29;10.50;99.90
8832;DHT22;4452;50.756;4.472;2022-11-15T09:15:58;10.50;99.90
8832;DHT22;4452;50.756;4.472;2022-11-15T09:18:24;10.60;99.90
8832;DHT22;4452;50.756;4.472;2022-11-15T09:20:50;10.70;99.90
8832;DHT22;4452;50.756;4.472;2022-11-15T09:23:15;10.80;99.90
8832;DHT22;4452;50.756;4.472;2022-11-15T09:25:41;10.80;99.90
8832;DHT22;4452;50.756;4.472;2022-11-15T09:28:07;10.90;99.90
8832;DHT22;4452;50.756;4.472;2022-11-15T09:30:33;10.90;99.90
8832;DHT22;4452;50.756;4.472;2022-11-15T09:32:59;10.90;99.90
8832;DHT22;4452;50.756;4.472;2022-11-15T09:35:31;11.00;99.90
8832;DHT22;4452;50.756;4.472;2022-11-15T09:37:57;11.00;99.90
8832;DHT22;4452;50.756;4.472;2022-11-15T09:40:24;11.00;99.90
8832;DHT22;4452;50.756;4.472;2022-11-15T09:43:09;11.10;99.90
8832;DHT22;4452;50.756;4.472;2022-11-15T09:51:06;11.40;99.90
8832;DHT22;4452;50.756;4.472;2022-11-15T09:53:43;11.40;99.90
8832;DHT22;4452;50.756;4.472;2022-11-15T09:56:26;11.40;99.90
8832;DHT22;4452;50.756;4.472;2022-11-15T10:04:13;11.50;99.90
8832;DHT22;4452;50.756;4.472;2022-11-15T10:06:43;11.50;99.90
8832;DHT22;4452;50.756;4.472;2022-11-15T10:09:19;11.60;99.90
8832;DHT22;4452;50.756;4.472;2022-11-15T10:11:49;11.60;99.90
8832;DHT22;4452;50.756;4.472;2022-11-15T10:14:33;11.70;99.90
8832;DHT22;4452;50.756;4.472;2022-11-15T10:22:28;11.70;99.90
8832;DHT22;4452;50.756;4.472;2022-11-15T10:27:35;11.90;99.90
8832;DHT22;4452;50.756;4.472;2022-11-15T10:30:02;12.00;99.90
8832;DHT22;4452;50.756;4.472;2022-11-15T10:32:30;11.90;99.90
8832;DHT22;4452;50.756;4.472;2022-11-15T10:34:59;11.90;99.90
8832;DHT22;4452;50.756;4.472;2022-11-15T10:37:29;11.70;99.90
8832;DHT22;4452;50.756;4.472;2022-11-15T10:40:12;11.80;99.90
8832;DHT22;4452;50.756;4.472;2022-11-15T10:42:39;11.80;99.90
8832;DHT22;4452;50.756;4.472;2022-11-15T10:45:27;11.90;99.90
8832;DHT22;4452;50.756;4.472;2022-11-15T10:47:54;12.10;99.90
8832;DHT22;4452;50.756;4.472;2022-11-15T10:50:41;12.20;99.90
8832;DHT22;4452;50.756;4.472;2022-11-15T10:53:38;12.20;99.90
8832;DHT22;4452;50.756;4.472;2022-11-15T10:56:08;12.20;99.90
8832;DHT22;4452;50.756;4.472;2022-11-15T10:58:49;12.30;99.90
8832;DHT22;4452;50.756;4.472;2022-11-15T11:01:27;12.40;99.90
8832;DHT22;4452;50.756;4.472;2022-11-15T11:04:05;12.50;99.90
8832;DHT22;4452;50.756;4.472;2022-11-15T11:06:56;12.50;99.90
8832;DHT22;4452;50.756;4.472;2022-11-15T11:09:25;12.50;99.90
8832;DHT22;4452;50.756;4.472;2022-11-15T11:11:56;12.60;99.90
8832;DHT22;4452;50.756;4.472;2022-11-15T11:14:43;12.60;99.90
8832;DHT22;4452;50.756;4.472;2022-11-15T11:20:17;12.90;99.90
8832;DHT22;4452;50.756;4.472;2022-11-15T11:25:11;13.00;99.90
8832;DHT22;4452;50.756;4.472;2022-11-15T11:35:53;13.10;99.90
8832;DHT22;4452;50.756;4.472;2022-11-15T11:38:56;13.10;99.90
8832;DHT22;4452;50.756;4.472;2022-11-15T11:44:31;12.90;99.90
8832;DHT22;4452;50.756;4.472;2022-11-15T11:47:11;12.90;99.90
8832;DHT22;4452;50.756;4.472;2022-11-15T11:49:47;13.00;99.90
8832;DHT22;4452;50.756;4.472;2022-11-15T11:52:43;13.00;99.90
8832;DHT22;4452;50.756;4.472;2022-11-15T11:55:20;12.90;99.90
8832;DHT22;4452;50.756;4.472;2022-11-15T11:58:25;12.90;99.90
8832;DHT22;4452;50.756;4.472;2022-11-15T12:00:54;12.90;99.90
8832;DHT22;4452;50.756;4.472;2022-11-15T12:03:28;12.90;99.90
8832;DHT22;4452;50.756;4.472;2022-11-15T12:05:59;12.90;99.90
8832;DHT22;4452;50.756;4.472;2022-11-15T12:14:02;12.90;99.90
8832;DHT22;4452;50.756;4.472;2022-11-15T12:16:31;12.90;99.90
8832;DHT22;4452;50.756;4.472;2022-11-15T12:19:01;12.90;99.90
8832;DHT22;4452;50.756;4.472;2022-11-15T12:24:37;12.90;99.90
8832;DHT22;4452;50.756;4.472;2022-11-15T12:27:26;12.80;99.90
8832;DHT22;4452;50.756;4.472;2022-11-15T12:29:58;12.90;99.90
8832;DHT22;4452;50.756;4.472;2022-11-15T12:32:31;13.00;99.90
8832;DHT22;4452;50.756;4.472;2022-11-15T12:34:59;13.00;99.90
8832;DHT22;4452;50.756;4.472;2022-11-15T12:40:05;13.10;99.90
8832;DHT22;4452;50.756;4.472;2022-11-15T12:42:58;13.00;99.90
8832;DHT22;4452;50.756;4.472;2022-11-15T12:45:39;13.10;99.90
8832;DHT22;4452;50.756;4.472;2022-11-15T13:12:07;13.70;99.90
8832;DHT22;4452;50.756;4.472;2022-11-15T13:17:19;13.70;99.90
8832;DHT22;4452;50.756;4.472;2022-11-15T13:19:47;13.70;99.90
8832;DHT22;4452;50.756;4.472;2022-11-15T13:22:14;13.60;99.90
8832;DHT22;4452;50.756;4.472;2022-11-15T13:25:01;13.50;99.90
8832;DHT22;4452;50.756;4.472;2022-11-15T13:27:28;13.40;99.90
8832;DHT22;4452;50.756;4.472;2022-11-15T13:29:54;13.40;99.90
8832;DHT22;4452;50.756;4.472;2022-11-15T13:32:20;13.40;99.90
8832;DHT22;4452;50.756;4.472;2022-11-15T13:34:49;13.30;99.90
8832;DHT22;4452;50.756;4.472;2022-11-15T13:39:50;13.40;99.90
8832;DHT22;4452;50.756;4.472;2022-11-15T13:42:17;13.30;99.90
8832;DHT22;4452;50.756;4.472;2022-11-15T13:45:01;13.40;99.90
8832;DHT22;4452;50.756;4.472;2022-11-15T13:47:28;13.40;99.90
8832;DHT22;4452;50.756;4.472;2022-11-15T13:49:57;13.40;99.90
8832;DHT22;4452;50.756;4.472;2022-11-15T13:52:28;13.40;99.90
8832;DHT22;4452;50.756;4.472;2022-11-15T13:55:18;13.30;99.90
8832;DHT22;4452;50.756;4.472;2022-11-15T13:57:59;13.30;99.90
8832;DHT22;4452;50.756;4.472;2022-11-15T14:00:45;13.30;99.90
8832;DHT22;4452;50.756;4.472;2022-11-15T14:03:32;13.30;99.90
8832;DHT22;4452;50.756;4.472;2022-11-15T14:06:11;13.30;99.90
8832;DHT22;4452;50.756;4.472;2022-11-15T14:09:00;13.20;99.90
8832;DHT22;4452;50.756;4.472;2022-11-15T14:11:24;13.20;99.90
8832;DHT22;4452;50.756;4.472;2022-11-15T14:16:44;13.10;99.90
8832;DHT22;4452;50.756;4.472;2022-11-15T14:19:33;13.10;99.90
8832;DHT22;4452;50.756;4.472;2022-11-15T14:24:50;13.00;99.90
8832;DHT22;4452;50.756;4.472;2022-11-15T14:27:29;13.00;99.90
8832;DHT22;4452;50.756;4.472;2022-11-15T14:29:55;12.90;99.90
8832;DHT22;4452;50.756;4.472;2022-11-15T14:32:23;13.00;99.90
8832;DHT22;4452;50.756;4.472;2022-11-15T14:35:00;12.90;99.90
8832;DHT22;4452;50.756;4.472;2022-11-15T14:37:32;12.90;99.90
8832;DHT22;4452;50.756;4.472;2022-11-15T14:40:05;12.80;99.90
8832;DHT22;4452;50.756;4.472;2022-11-15T14:42:31;12.80;99.90
8832;DHT22;4452;50.756;4.472;2022-11-15T14:44:57;12.80;99.90
8832;DHT22;4452;50.756;4.472;2022-11-15T14:47:23;12.80;99.90
8832;DHT22;4452;50.756;4.472;2022-11-15T14:49:48;12.80;99.90
8832;DHT22;4452;50.756;4.472;2022-11-15T14:52:26;12.90;99.90
8832;DHT22;4452;50.756;4.472;2022-11-15T14:54:54;12.80;99.90
8832;DHT22;4452;50.756;4.472;2022-11-15T14:57:20;12.80;99.90
8832;DHT22;4452;50.756;4.472;2022-11-15T14:59:45;12.80;99.90
8832;DHT22;4452;50.756;4.472;2022-11-15T15:02:22;12.80;99.90
8832;DHT22;4452;50.756;4.472;2022-11-15T15:04:49;12.70;99.90
8832;DHT22;4452;50.756;4.472;2022-11-15T15:07:15;12.70;99.90
8832;DHT22;4452;50.756;4.472;2022-11-15T15:09:44;12.60;99.90
8832;DHT22;4452;50.756;4.472;2022-11-15T15:12:17;12.60;99.90
8832;DHT22;4452;50.756;4.472;2022-11-15T15:14:44;12.60;99.90
8832;DHT22;4452;50.756;4.472;2022-11-15T15:17:10;12.60;99.90
8832;DHT22;4452;50.756;4.472;2022-11-15T15:19:36;12.50;99.90
8832;DHT22;4452;50.756;4.472;2022-11-15T15:22:02;12.50;99.90
8832;DHT22;4452;50.756;4.472;2022-11-15T15:24:27;12.50;99.90
8832;DHT22;4452;50.756;4.472;2022-11-15T15:26:53;12.40;99.90
8832;DHT22;4452;50.756;4.472;2022-11-15T15:29:19;12.40;99.90
8832;DHT22;4452;50.756;4.472;2022-11-15T15:31:44;12.30;99.90
8832;DHT22;4452;50.756;4.472;2022-11-15T15:34:10;12.30;99.90
8832;DHT22;4452;50.756;4.472;2022-11-15T15:36:35;12.30;99.90
8832;DHT22;4452;50.756;4.472;2022-11-15T15:39:01;12.30;99.90
8832;DHT22;4452;50.756;4.472;2022-11-15T15:41:27;12.20;99.90
8832;DHT22;4452;50.756;4.472;2022-11-15T15:43:53;12.20;99.90
8832;DHT22;4452;50.756;4.472;2022-11-15T15:46:19;12.20;99.90
8832;DHT22;4452;50.756;4.472;2022-11-15T15:48:46;12.10;99.90
8832;DHT22;4452;50.756;4.472;2022-11-15T15:51:12;12.10;99.90
8832;DHT22;4452;50.756;4.472;2022-11-15T15:53:38;12.10;99.90
8832;DHT22;4452;50.756;4.472;2022-11-15T15:56:04;12.10;99.90
8832;DHT22;4452;50.756;4.472;2022-11-15T15:58:33;12.10;99.90
8832;DHT22;4452;50.756;4.472;2022-11-15T16:00:59;12.10;99.90
8832;DHT22;4452;50.756;4.472;2022-11-15T16:03:24;12.10;99.90
8832;DHT22;4452;50.756;4.472;2022-11-15T16:05:50;12.10;99.90
8832;DHT22;4452;50.756;4.472;2022-11-15T16:08:18;12.10;99.90
8832;DHT22;4452;50.756;4.472;2022-11-15T16:10:44;12.10;99.90
8832;DHT22;4452;50.756;4.472;2022-11-15T16:13:10;12.10;99.90
8832;DHT22;4452;50.756;4.472;2022-11-15T16:15:36;12.00;99.90
8832;DHT22;4452;50.756;4.472;2022-11-15T16:18:03;12.00;99.90
8832;DHT22;4452;50.756;4.472;2022-11-15T16:20:44;12.00;99.90
8832;DHT22;4452;50.756;4.472;2022-11-15T16:23:12;12.00;99.90
8832;DHT22;4452;50.756;4.472;2022-11-15T16:28:20;11.90;99.90
8832;DHT22;4452;50.756;4.472;2022-11-15T16:30:47;11.90;99.90
8832;DHT22;4452;50.756;4.472;2022-11-15T16:33:12;11.90;99.90
8832;DHT22;4452;50.756;4.472;2022-11-15T16:35:38;11.90;99.90
8832;DHT22;4452;50.756;4.472;2022-11-15T16:38:04;11.90;99.90
8832;DHT22;4452;50.756;4.472;2022-11-15T16:40:33;11.90;99.90
8832;DHT22;4452;50.756;4.472;2022-11-15T16:43:00;11.90;99.90
8832;DHT22;4452;50.756;4.472;2022-11-15T16:45:27;11.90;99.90
8832;DHT22;4452;50.756;4.472;2022-11-15T16:47:54;11.90;99.90
8832;DHT22;4452;50.756;4.472;2022-11-15T16:50:24;11.90;99.90
8832;DHT22;4452;50.756;4.472;2022-11-15T16:52:55;11.90;99.90
8832;DHT22;4452;50.756;4.472;2022-11-15T16:55:23;12.00;99.90
8832;DHT22;4452;50.756;4.472;2022-11-15T16:57:49;11.90;99.90
8832;DHT22;4452;50.756;4.472;2022-11-15T17:00:16;11.90;99.90
8832;DHT22;4452;50.756;4.472;2022-11-15T17:02:48;11.90;99.90
8832;DHT22;4452;50.756;4.472;2022-11-15T17:05:16;12.00;99.90
8832;DHT22;4452;50.756;4.472;2022-11-15T17:07:42;12.00;99.90
8832;DHT22;4452;50.756;4.472;2022-11-15T17:10:10;12.00;99.90
8832;DHT22;4452;50.756;4.472;2022-11-15T17:12:36;12.00;99.90
8832;DHT22;4452;50.756;4.472;2022-11-15T17:15:02;12.00;99.90
8832;DHT22;4452;50.756;4.472;2022-11-15T17:17:29;12.00;99.90
8832;DHT22;4452;50.756;4.472;2022-11-15T17:19:55;12.00;99.90
8832;DHT22;4452;50.756;4.472;2022-11-15T17:22:20;12.00;99.90
8832;DHT22;4452;50.756;4.472;2022-11-15T17:24:46;12.00;99.90
8832;DHT22;4452;50.756;4.472;2022-11-15T17:27:12;12.00;99.90
8832;DHT22;4452;50.756;4.472;2022-11-15T17:29:37;11.90;99.90
8832;DHT22;4452;50.756;4.472;2022-11-15T17:32:03;11.90;99.90
8832;DHT22;4452;50.756;4.472;2022-11-15T17:34:29;11.90;99.90
8832;DHT22;4452;50.756;4.472;2022-11-15T17:36:55;11.90;99.90
8832;DHT22;4452;50.756;4.472;2022-11-15T17:39:20;11.90;99.90
8832;DHT22;4452;50.756;4.472;2022-11-15T17:41:48;12.00;99.90
8832;DHT22;4452;50.756;4.472;2022-11-15T17:44:14;12.00;99.90
8832;DHT22;4452;50.756;4.472;2022-11-15T17:46:40;12.00;99.90
8832;DHT22;4452;50.756;4.472;2022-11-15T17:49:06;12.00;99.90
8832;DHT22;4452;50.756;4.472;2022-11-15T17:51:32;12.00;99.90
8832;DHT22;4452;50.756;4.472;2022-11-15T17:53:57;12.00;99.90
8832;DHT22;4452;50.756;4.472;2022-11-15T17:56:24;12.00;99.90
8832;DHT22;4452;50.756;4.472;2022-11-15T17:58:52;12.00;99.90
8832;DHT22;4452;50.756;4.472;2022-11-15T18:01:31;12.00;99.90
8832;DHT22;4452;50.756;4.472;2022-11-15T18:03:58;12.00;99.90